createdAt,value
2022-11-28T00:02:06.631Z,4.50
2022-11-28T00:04:36.063Z,4.37
2022-11-28T00:07:05.639Z,4.39
2022-11-28T00:09:35.093Z,4.37
2022-11-28T00:12:04.545Z,4.46
2022-11-28T00:14:36.583Z,4.42
2022-11-28T00:17:05.976Z,4.42
2022-11-28T00:19:35.345Z,4.32
2022-11-28T00:22:04.892Z,4.28
2022-11-28T00:24:34.305Z,4.42
2022-11-28T00:27:03.687Z,4.44
2022-11-28T00:29:35.704Z,4.44
2022-11-28T00:32:05.132Z,4.39
2022-11-28T00:34:35.113Z,4.36
2022-11-28T00:37:04.585Z,4.38
2022-11-28T00:39:33.981Z,4.30
2022-11-28T00:42:03.450Z,4.40
2022-11-28T00:44:32.906Z,4.44
2022-11-28T00:47:05.061Z,4.41
2022-11-28T00:49:34.570Z,4.49
2022-11-28T00:52:03.930Z,4.34
2022-11-28T00:54:33.339Z,4.38
2022-11-28T00:57:02.804Z,4.36
2022-11-28T00:59:32.182Z,4.42
2022-11-28T01:02:01.698Z,4.30
2022-11-28T01:04:33.675Z,4.38
2022-11-28T01:07:03.088Z,4.30
2022-11-28T01:09:32.477Z,4.30
2022-11-28T01:12:01.957Z,4.36
2022-11-28T01:14:31.932Z,4.29
2022-11-28T01:17:01.423Z,4.27
2022-11-28T01:19:33.534Z,4.36
2022-11-28T01:22:02.909Z,4.26
2022-11-28T01:24:32.333Z,4.37
2022-11-28T01:27:01.827Z,4.38
2022-11-28T01:29:31.266Z,4.33
2022-11-28T01:32:00.736Z,4.24
2022-11-28T01:34:32.792Z,4.33
2022-11-28T01:37:02.612Z,4.27
2022-11-28T01:39:32.173Z,4.43
2022-11-28T01:42:01.599Z,4.36
2022-11-28T01:45:04.349Z,4.29
2022-11-28T01:47:34.175Z,4.21
2022-11-28T01:50:07.133Z,4.26
2022-11-28T01:52:36.997Z,4.17
2022-11-28T01:55:07.130Z,4.15
2022-11-28T01:57:36.789Z,4.25
2022-11-28T02:00:10.410Z,4.26
2022-11-28T02:02:42.804Z,4.30
2022-11-28T02:05:14.847Z,4.32
2022-11-28T02:07:44.818Z,4.39
2022-11-28T02:10:16.427Z,4.53
2022-11-28T02:13:13.349Z,4.40
2022-11-28T02:16:07.691Z,4.36
2022-11-28T02:18:50.321Z,4.25
2022-11-28T02:21:41.675Z,4.27
2022-11-28T02:24:35.824Z,4.41
2022-11-28T02:27:18.752Z,4.26
2022-11-28T02:30:01.689Z,4.23
2022-11-28T02:33:06.353Z,4.14
2022-11-28T02:35:39.338Z,4.17
2022-11-28T02:38:17.422Z,4.18
2022-11-28T02:40:54.635Z,4.18
2022-11-28T02:43:27.703Z,4.19
2022-11-28T02:46:00.828Z,4.27
2022-11-28T02:48:35.040Z,4.34
2022-11-28T02:51:09.038Z,4.25
2022-11-28T02:53:39.654Z,4.16
2022-11-28T02:56:09.378Z,4.19
2022-11-28T02:58:39.536Z,4.10
2022-11-28T03:01:12.526Z,4.15
2022-11-28T03:04:11.946Z,4.18
2022-11-28T03:06:51.670Z,4.08
2022-11-28T03:09:53.369Z,4.07
2022-11-28T03:12:28.231Z,4.12
2022-11-28T03:14:59.282Z,4.15
2022-11-28T03:17:36.754Z,4.15
2022-11-28T03:20:17.155Z,4.13
2022-11-28T03:22:58.043Z,4.24
2022-11-28T03:25:30.687Z,4.23
2022-11-28T03:28:04.187Z,4.20
2022-11-28T03:30:38.994Z,4.21
2022-11-28T03:33:09.691Z,4.21
2022-11-28T03:35:42.474Z,4.14
2022-11-28T03:38:16.399Z,4.10
2022-11-28T03:40:47.861Z,4.24
2022-11-28T03:43:19.708Z,4.29
2022-11-28T03:45:51.840Z,4.22
2022-11-28T03:48:24.557Z,4.15
2022-11-28T03:50:58.009Z,4.09
2022-11-28T03:53:33.675Z,4.10
2022-11-28T03:56:06.145Z,4.06
2022-11-28T03:58:39.472Z,4.07
2022-11-28T04:01:12.207Z,3.97
2022-11-28T04:03:48.663Z,3.99
2022-11-28T04:06:21.082Z,3.93
2022-11-28T04:08:59.054Z,3.96
2022-11-28T04:11:31.240Z,3.95
2022-11-28T04:14:05.202Z,4.09
2022-11-28T04:16:37.885Z,4.04
2022-11-28T04:19:12.623Z,4.00
2022-11-28T04:21:46.256Z,3.90
2022-11-28T04:24:21.932Z,3.86
2022-11-28T04:26:54.899Z,3.92
2022-11-28T04:29:26.855Z,3.89
2022-11-28T04:31:58.802Z,3.84
2022-11-28T04:34:29.021Z,3.82
2022-11-28T04:37:05.480Z,3.82
2022-11-28T04:39:41.141Z,3.75
2022-11-28T04:42:13.507Z,3.83
2022-11-28T04:44:47.279Z,3.80
2022-11-28T04:47:17.192Z,3.78
2022-11-28T04:49:47.036Z,3.76
2022-11-28T04:52:19.056Z,3.75
2022-11-28T04:54:56.014Z,3.78
2022-11-28T04:57:29.809Z,3.72
2022-11-28T04:59:59.579Z,3.83
2022-11-28T05:02:30.460Z,3.79
2022-11-28T05:05:00.122Z,3.77
2022-11-28T05:07:29.801Z,3.77
2022-11-28T05:10:01.813Z,3.78
2022-11-28T05:12:31.237Z,3.72
2022-11-28T05:15:00.613Z,3.79
2022-11-28T05:17:30.116Z,3.74
2022-11-28T05:19:59.770Z,3.68
2022-11-28T05:22:29.196Z,3.62
2022-11-28T05:25:01.544Z,3.62
2022-11-28T05:27:30.998Z,3.65
2022-11-28T05:30:00.400Z,3.61
2022-11-28T05:32:32.104Z,3.69
2022-11-28T05:35:01.708Z,3.64
2022-11-28T05:37:31.237Z,3.62
2022-11-28T05:40:03.560Z,3.64
2022-11-28T05:42:35.235Z,3.73
2022-11-28T05:45:05.342Z,3.65
2022-11-28T05:47:35.492Z,3.72
2022-11-28T05:50:04.847Z,3.71
2022-11-28T05:52:34.299Z,3.75
2022-11-28T05:55:06.888Z,3.77
2022-11-28T05:57:36.350Z,3.70
2022-11-28T06:00:06.536Z,3.68
2022-11-28T06:02:38.168Z,3.63
2022-11-28T06:05:27.646Z,3.58
2022-11-28T06:07:57.656Z,3.58
2022-11-28T06:10:29.661Z,3.54
2022-11-28T06:12:59.071Z,3.56
2022-11-28T06:15:28.544Z,3.56
2022-11-28T06:17:58.562Z,3.59
2022-11-28T06:20:28.068Z,3.63
2022-11-28T06:22:57.448Z,3.63
2022-11-28T06:25:29.460Z,3.73
2022-11-28T06:27:58.813Z,3.76
2022-11-28T06:30:28.310Z,3.77
2022-11-28T06:32:57.734Z,3.70
2022-11-28T06:35:27.142Z,3.70
2022-11-28T06:37:56.529Z,3.70
2022-11-28T06:40:26.514Z,3.74
2022-11-28T06:42:58.511Z,3.69
2022-11-28T06:45:27.950Z,3.63
2022-11-28T06:47:57.406Z,3.66
2022-11-28T06:50:26.770Z,3.65
2022-11-28T06:52:57.055Z,3.67
2022-11-28T06:55:26.415Z,3.73
2022-11-28T06:57:58.411Z,3.64
2022-11-28T07:00:28.211Z,3.76
2022-11-28T07:02:58.257Z,3.71
2022-11-28T07:05:28.567Z,3.71
2022-11-28T07:07:57.967Z,3.75
2022-11-28T07:10:28.126Z,3.73
2022-11-28T07:13:05.222Z,3.61
2022-11-28T07:15:35.064Z,3.63
2022-11-28T07:18:04.440Z,3.56
2022-11-28T07:20:33.853Z,3.64
2022-11-28T07:23:03.215Z,3.74
2022-11-28T07:25:32.577Z,3.70
2022-11-28T07:28:04.928Z,3.64
2022-11-28T07:30:34.394Z,3.58
2022-11-28T07:33:03.774Z,3.52
2022-11-28T07:35:33.242Z,3.54
2022-11-28T07:38:02.817Z,3.56
2022-11-28T07:40:32.180Z,3.55
2022-11-28T07:43:01.616Z,3.57
2022-11-28T07:45:53.896Z,3.63
2022-11-28T07:48:22.944Z,3.60
2022-11-28T07:50:52.332Z,3.65
2022-11-28T07:53:22.124Z,3.67
2022-11-28T07:55:51.527Z,3.64
2022-11-28T07:58:22.155Z,3.70
2022-11-28T08:00:54.425Z,3.72
2022-11-28T08:03:23.920Z,3.70
2022-11-28T08:05:53.378Z,3.83
2022-11-28T08:08:22.997Z,3.79
2022-11-28T08:10:52.441Z,3.88
2022-11-28T08:13:21.916Z,3.91
2022-11-28T08:15:53.993Z,4.09
2022-11-28T08:18:23.414Z,3.98
2022-11-28T08:20:52.885Z,3.97
2022-11-28T08:23:22.390Z,4.08
2022-11-28T08:25:51.834Z,4.11
2022-11-28T08:28:21.281Z,4.24
2022-11-28T08:30:50.748Z,4.15
2022-11-28T08:33:22.881Z,4.10
2022-11-28T08:35:52.387Z,3.99
2022-11-28T08:38:23.418Z,3.97
2022-11-28T08:40:52.939Z,4.20
2022-11-28T08:43:22.322Z,4.20
2022-11-28T08:45:51.825Z,4.08
2022-11-28T08:48:23.816Z,4.06
2022-11-28T08:50:54.290Z,4.08
2022-11-28T08:53:24.079Z,4.13
2022-11-28T08:55:54.104Z,4.16
2022-11-28T08:58:23.477Z,4.12
2022-11-28T09:00:52.884Z,4.08
2022-11-28T09:03:25.011Z,4.25
2022-11-28T09:05:55.590Z,4.22
2022-11-28T09:08:25.069Z,4.32
2022-11-28T09:10:54.517Z,4.28
2022-11-28T09:13:23.924Z,4.17
2022-11-28T09:15:53.912Z,4.23
2022-11-28T09:18:27.142Z,4.35
2022-11-28T09:21:00.653Z,4.42
2022-11-28T09:23:30.892Z,4.37
2022-11-28T09:26:00.492Z,4.32
2022-11-28T09:28:29.939Z,4.48
2022-11-28T09:31:04.130Z,4.50
2022-11-28T09:33:36.862Z,4.42
2022-11-28T09:36:10.395Z,4.38
2022-11-28T09:38:40.534Z,4.21
2022-11-28T09:41:39.452Z,4.16
2022-11-28T09:44:12.320Z,4.24
2022-11-28T09:46:42.417Z,4.18
2022-11-28T09:49:22.379Z,4.21
2022-11-28T09:51:55.263Z,4.24
2022-11-28T09:54:30.518Z,4.19
2022-11-28T09:57:00.085Z,4.24
2022-11-28T09:59:31.180Z,4.21
2022-11-28T10:02:10.126Z,4.38
2022-11-28T10:04:47.774Z,4.32
2022-11-28T10:07:22.900Z,4.24
2022-11-28T10:09:58.704Z,4.28
2022-11-28T10:12:40.457Z,4.25
2022-11-28T10:15:16.724Z,4.23
2022-11-28T10:17:52.705Z,4.22
2022-11-28T10:20:27.067Z,4.28
2022-11-28T10:22:59.604Z,4.36
2022-11-28T10:25:32.126Z,4.39
2022-11-28T10:28:01.725Z,4.42
2022-11-28T10:30:34.378Z,4.51
2022-11-28T10:33:06.812Z,4.43
2022-11-28T10:35:44.603Z,4.43
2022-11-28T10:38:15.822Z,4.41
2022-11-28T10:40:51.364Z,4.42
2022-11-28T10:43:30.636Z,4.43
2022-11-28T10:46:08.150Z,4.40
2022-11-28T10:48:43.867Z,4.29
2022-11-28T10:51:22.753Z,4.31
2022-11-28T10:54:02.604Z,4.31
2022-11-28T10:56:39.490Z,4.35
2022-11-28T10:59:14.275Z,4.31
2022-11-28T11:01:48.835Z,4.39
2022-11-28T11:04:22.641Z,4.30
2022-11-28T11:07:11.402Z,4.33
2022-11-28T11:09:45.960Z,4.19
2022-11-28T11:12:18.935Z,4.20
2022-11-28T11:14:48.946Z,4.16
2022-11-28T11:17:35.490Z,4.06
2022-11-28T11:20:05.586Z,4.01
2022-11-28T11:22:37.728Z,4.10
2022-11-28T11:25:09.802Z,3.97
2022-11-28T11:27:39.918Z,4.02
2022-11-28T11:30:20.775Z,4.04
2022-11-28T11:32:51.777Z,3.90
2022-11-28T11:35:25.066Z,3.90
2022-11-28T11:38:18.810Z,3.94
2022-11-28T11:40:48.627Z,3.93
2022-11-28T11:43:29.782Z,3.88
2022-11-28T11:46:10.610Z,3.84
2022-11-28T11:48:41.646Z,3.83
2022-11-28T11:51:24.585Z,3.71
2022-11-28T11:54:07.748Z,3.74
2022-11-28T11:56:40.001Z,3.70
2022-11-28T11:59:15.008Z,3.66
2022-11-28T12:01:45.215Z,3.71
2022-11-28T12:04:43.794Z,3.62
2022-11-28T12:07:16.660Z,3.61
2022-11-28T12:09:53.532Z,3.53
2022-11-28T12:12:26.083Z,3.53
2022-11-28T12:14:55.493Z,3.54
2022-11-28T12:17:48.407Z,3.50
2022-11-28T12:20:42.276Z,3.48
2022-11-28T12:23:27.848Z,3.38
2022-11-28T12:26:04.657Z,3.41
2022-11-28T12:28:47.444Z,3.37
2022-11-28T12:31:22.584Z,3.45
2022-11-28T12:34:01.519Z,3.45
2022-11-28T12:36:35.097Z,3.40
2022-11-28T12:39:25.517Z,3.30
2022-11-28T12:42:15.719Z,3.31
2022-11-28T12:45:14.879Z,3.29
2022-11-28T12:47:50.714Z,3.31
2022-11-28T12:50:27.912Z,3.25
2022-11-28T12:53:07.752Z,3.26
2022-11-28T12:55:42.153Z,3.24
2022-11-28T12:58:16.807Z,3.18
2022-11-28T13:00:53.622Z,3.19
2022-11-28T13:03:37.626Z,3.19
2022-11-28T13:06:17.942Z,3.15
2022-11-28T13:09:06.574Z,3.22
2022-11-28T13:11:51.777Z,3.20
2022-11-28T13:14:32.481Z,3.14
2022-11-28T13:17:09.232Z,3.18
2022-11-28T13:19:44.360Z,3.18
2022-11-28T13:22:19.775Z,3.19
2022-11-28T13:24:55.794Z,3.14
2022-11-28T13:27:34.024Z,3.17
2022-11-28T13:30:16.720Z,3.18
2022-11-28T13:32:49.682Z,3.20
2022-11-28T13:35:20.773Z,3.16
2022-11-28T13:40:50.645Z,3.21
2022-11-28T13:43:24.918Z,3.17
2022-11-28T13:45:57.537Z,3.15
2022-11-28T13:51:43.800Z,3.19
2022-11-28T13:54:36.924Z,3.17
2022-11-28T13:57:08.386Z,3.15
2022-11-28T13:59:38.096Z,3.00
2022-11-28T14:02:23.041Z,3.09
2022-11-28T14:04:52.605Z,3.07
2022-11-28T14:07:30.243Z,3.06
2022-11-28T14:10:12.865Z,3.04
2022-11-28T14:12:49.311Z,2.97
2022-11-28T14:15:29.197Z,3.02
2022-11-28T14:18:39.163Z,2.95
2022-11-28T14:21:03.920Z,2.90
2022-11-28T14:23:43.235Z,2.90
2022-11-28T14:26:16.066Z,2.89
2022-11-28T14:28:47.404Z,2.94
2022-11-28T14:31:29.241Z,2.90
2022-11-28T14:34:06.012Z,2.88
2022-11-28T14:36:39.262Z,2.87
2022-11-28T14:39:13.287Z,2.83
2022-11-28T14:42:58.851Z,2.88
2022-11-28T14:45:45.636Z,2.82
2022-11-28T14:48:31.805Z,2.78
2022-11-28T14:51:04.175Z,2.84
2022-11-28T14:53:44.436Z,2.77
2022-11-28T14:56:26.953Z,2.76
2022-11-28T14:59:00.309Z,2.73
2022-11-28T15:01:41.294Z,2.77
2022-11-28T15:04:23.163Z,2.70
2022-11-28T15:06:55.907Z,2.69
2022-11-28T15:09:30.359Z,2.74
2022-11-28T15:12:11.624Z,2.76
2022-11-28T15:14:41.609Z,2.81
2022-11-28T15:17:15.131Z,2.76
2022-11-28T15:19:48.057Z,2.75
2022-11-28T15:22:35.828Z,2.77
2022-11-28T15:25:05.329Z,2.80
2022-11-28T15:27:34.823Z,2.84
2022-11-28T15:30:04.544Z,2.84
2022-11-28T15:32:34.779Z,2.78
2022-11-28T15:35:12.255Z,2.82
2022-11-28T15:37:50.083Z,2.82
2022-11-28T15:40:22.210Z,2.94
2022-11-28T15:42:52.056Z,3.04
2022-11-28T15:45:27.241Z,3.13
2022-11-28T15:47:57.882Z,3.37
2022-11-28T15:50:28.660Z,3.17
2022-11-28T15:53:02.545Z,3.07
2022-11-28T15:55:33.619Z,3.30
2022-11-28T15:58:13.690Z,3.26
2022-11-28T16:00:44.687Z,3.32
2022-11-28T16:03:17.411Z,3.50
2022-11-28T16:05:47.968Z,3.63
2022-11-28T16:08:28.676Z,3.57
2022-11-28T16:10:58.526Z,3.51
2022-11-28T16:13:28.379Z,3.41
2022-11-28T16:16:00.089Z,3.53
2022-11-28T16:18:30.695Z,3.66
2022-11-28T16:21:01.311Z,3.76
2022-11-28T16:23:37.943Z,3.57
2022-11-28T16:26:09.838Z,3.61
2022-11-28T16:28:40.966Z,3.68
2022-11-28T16:31:14.365Z,3.76
2022-11-28T16:33:45.070Z,3.71
2022-11-28T16:36:22.037Z,3.63
2022-11-28T16:38:55.657Z,3.56
2022-11-28T16:41:26.723Z,3.57
2022-11-28T16:43:58.300Z,3.52
2022-11-28T16:46:31.747Z,3.74
2022-11-28T16:49:02.462Z,3.88
2022-11-28T16:51:37.128Z,3.67
2022-11-28T16:54:33.992Z,3.64
2022-11-28T16:57:14.732Z,3.36
2022-11-28T16:59:44.848Z,3.22
2022-11-28T17:02:18.845Z,3.17
2022-11-28T17:04:49.872Z,3.13
2022-11-28T17:07:21.709Z,3.15
2022-11-28T17:09:53.806Z,3.12
2022-11-28T17:12:27.414Z,3.13
2022-11-28T17:14:58.378Z,3.05
2022-11-28T17:17:28.286Z,3.03
2022-11-28T17:19:57.740Z,3.06
2022-11-28T17:22:29.118Z,3.05
2022-11-28T17:25:03.358Z,3.01
2022-11-28T17:27:33.044Z,2.99
2022-11-28T17:30:02.556Z,2.95
2022-11-28T17:32:32.016Z,3.01
2022-11-28T17:35:03.997Z,3.02
2022-11-28T17:37:33.486Z,3.01
2022-11-28T17:40:18.163Z,2.96
2022-11-28T17:42:47.646Z,2.96
2022-11-28T17:45:17.879Z,2.94
2022-11-28T17:47:47.400Z,2.96
2022-11-28T17:50:17.623Z,2.92
2022-11-28T17:52:47.449Z,2.94
2022-11-28T17:55:20.708Z,2.95
2022-11-28T17:57:50.212Z,3.01
2022-11-28T18:00:20.047Z,2.97
2022-11-28T18:02:49.525Z,3.02
2022-11-28T18:05:19.212Z,3.03
2022-11-28T18:07:48.711Z,3.01
2022-11-28T18:10:21.121Z,3.05
2022-11-28T18:12:50.638Z,3.05
2022-11-28T18:15:20.159Z,3.06
2022-11-28T18:17:49.661Z,3.01
2022-11-28T18:20:20.021Z,3.00
2022-11-28T18:22:49.809Z,2.97
2022-11-28T18:25:21.903Z,2.88
2022-11-28T18:27:51.476Z,2.94
2022-11-28T18:30:21.228Z,2.95
2022-11-28T18:32:50.656Z,2.94
2022-11-28T18:35:20.191Z,2.98
2022-11-28T18:37:49.691Z,3.01
2022-11-28T18:40:21.810Z,2.96
2022-11-28T18:42:51.301Z,3.02
2022-11-28T18:45:20.853Z,3.03
2022-11-28T18:47:52.191Z,2.96
2022-11-28T18:50:24.275Z,2.97
2022-11-28T18:52:54.418Z,3.01
2022-11-28T18:55:26.759Z,3.05
2022-11-28T18:57:56.245Z,3.08
2022-11-28T19:00:25.982Z,3.05
2022-11-28T19:02:57.199Z,3.09
2022-11-28T19:05:26.656Z,3.08
2022-11-28T19:07:56.130Z,3.07
2022-11-28T19:10:28.251Z,3.08
2022-11-28T19:12:57.718Z,3.09
2022-11-28T19:15:27.189Z,3.03
2022-11-28T19:17:56.752Z,2.98
2022-11-28T19:20:26.663Z,2.97
2022-11-28T19:22:56.108Z,2.95
2022-11-28T19:25:28.094Z,2.93
2022-11-28T19:27:57.587Z,2.96
2022-11-28T19:30:26.983Z,2.98
2022-11-28T19:32:58.613Z,3.00
2022-11-28T19:35:28.057Z,3.02
2022-11-28T19:37:57.537Z,3.05
2022-11-28T19:40:29.583Z,3.08
2022-11-28T19:42:59.104Z,3.44
2022-11-28T19:45:28.643Z,3.53
2022-11-28T19:47:58.215Z,3.50
2022-11-28T19:50:27.659Z,3.64
2022-11-28T19:52:57.193Z,3.70
2022-11-28T19:55:29.270Z,3.65
2022-11-28T19:57:58.798Z,3.80
2022-11-28T20:00:28.332Z,3.97
2022-11-28T20:02:57.815Z,4.07
2022-11-28T20:05:27.251Z,3.82
2022-11-28T20:07:58.695Z,4.03
2022-11-28T20:10:31.428Z,4.19
2022-11-28T20:13:00.964Z,3.98
2022-11-28T20:15:30.398Z,3.99
2022-11-28T20:17:59.868Z,3.94
2022-11-28T20:20:29.309Z,3.88
2022-11-28T20:22:59.941Z,3.86
2022-11-28T20:25:33.233Z,4.01
2022-11-28T20:28:02.753Z,3.87
2022-11-28T20:30:32.254Z,3.86
2022-11-28T20:33:01.779Z,3.90
2022-11-28T20:35:31.251Z,3.97
2022-11-28T20:38:00.766Z,3.86
2022-11-28T20:40:32.820Z,3.87
2022-11-28T20:43:02.389Z,3.96
2022-11-28T20:45:31.943Z,3.83
2022-11-28T20:48:01.856Z,3.85
2022-11-28T20:50:31.399Z,3.76
2022-11-28T20:53:00.881Z,3.83
2022-11-28T20:55:33.000Z,3.87
2022-11-28T20:58:02.506Z,3.95
2022-11-28T21:00:31.979Z,3.80
2022-11-28T21:03:01.378Z,3.69
2022-11-28T21:05:30.952Z,3.75
2022-11-28T21:08:00.558Z,3.82
2022-11-28T21:10:31.991Z,4.10
2022-11-28T21:13:04.139Z,3.99
2022-11-28T21:15:33.748Z,3.92
2022-11-28T21:18:03.801Z,3.88
2022-11-28T21:20:33.302Z,3.75
2022-11-28T21:23:02.713Z,3.86
2022-11-28T21:25:32.096Z,4.00
2022-11-28T21:28:04.092Z,4.07
2022-11-28T21:30:33.785Z,4.00
2022-11-28T21:33:03.173Z,3.89
2022-11-28T21:35:32.618Z,4.01
2022-11-28T21:38:02.079Z,3.88
2022-11-28T21:40:31.571Z,4.35
2022-11-28T21:43:03.760Z,4.07
2022-11-28T21:45:33.239Z,4.22
2022-11-28T21:48:02.667Z,4.25
2022-11-28T21:50:32.088Z,4.04
2022-11-28T21:53:01.546Z,4.26
2022-11-28T21:55:31.043Z,4.06
2022-11-28T21:58:00.591Z,4.22
2022-11-28T22:00:52.799Z,4.00
2022-11-28T22:03:23.270Z,3.89
2022-11-28T22:05:52.876Z,4.05
2022-11-28T22:08:22.527Z,3.85
2022-11-28T22:10:52.140Z,4.03
2022-11-28T22:13:21.629Z,4.05
2022-11-28T22:15:53.771Z,4.31
2022-11-28T22:18:23.239Z,4.07
2022-11-28T22:20:53.110Z,4.09
2022-11-28T22:23:22.858Z,4.41
2022-11-28T22:25:55.340Z,4.40
2022-11-28T22:28:24.777Z,4.41
2022-11-28T22:30:56.955Z,4.07
2022-11-28T22:33:26.564Z,4.39
2022-11-28T22:35:56.075Z,4.23
2022-11-28T22:38:26.530Z,4.13
2022-11-28T22:40:56.034Z,4.13
2022-11-28T22:43:25.596Z,4.10
2022-11-28T22:46:01.042Z,4.18
2022-11-28T22:48:31.511Z,4.12
2022-11-28T22:51:01.291Z,4.18
2022-11-28T22:53:30.836Z,4.21
2022-11-28T22:56:05.302Z,4.28
2022-11-28T22:58:42.335Z,4.16
2022-11-28T23:01:17.369Z,4.07
2022-11-28T23:03:47.529Z,4.07
2022-11-28T23:06:19.316Z,4.05
2022-11-28T23:08:49.161Z,3.91
2022-11-28T23:11:21.413Z,3.98
2022-11-28T23:13:52.014Z,3.90
2022-11-28T23:16:25.736Z,4.01
2022-11-28T23:18:56.472Z,4.03
2022-11-28T23:21:27.205Z,4.32
2022-11-28T23:23:56.704Z,4.48
2022-11-28T23:26:27.442Z,4.50
2022-11-28T23:28:57.247Z,4.19
2022-11-28T23:31:31.383Z,4.16
2022-11-28T23:34:01.526Z,4.32
2022-11-28T23:36:36.989Z,4.18
2022-11-28T23:39:12.088Z,3.97
2022-11-28T23:41:41.562Z,4.07
2022-11-28T23:44:12.790Z,4.01
2022-11-28T23:46:45.602Z,4.00
2022-11-28T23:49:15.489Z,3.82
2022-11-28T23:51:44.980Z,4.00
2022-11-28T23:54:14.954Z,4.09
2022-11-28T23:56:44.982Z,3.94
2022-11-28T23:59:15.142Z,4.03
